sensor_id;sensor_type;location;lat;lon;timestamp;pressure;altitude;pressure_sealevel;temperature;humidity
59240;BME280;45010;53.640;10.578;2022-08-18T00:00:45;100547.19;;;28.44;48.10
59240;BME280;45010;53.640;10.578;2022-08-18T00:03:46;100549.88;;;28.44;48.30
59240;BME280;45010;53.640;10.578;2022-08-18T00:06:46;100543.72;;;28.43;48.06
59240;BME280;45010;53.640;10.578;2022-08-18T00:09:46;100546.66;;;28.42;48.31
59240;BME280;45010;53.640;10.578;2022-08-18T00:12:47;100543.97;;;28.42;48.01
59240;BME280;45010;53.640;10.578;2022-08-18T00:15:47;100541.28;;;28.42;48.25
59240;BME280;45010;53.640;10.578;2022-08-18T00:18:47;100539.69;;;28.41;48.02
59240;BME280;45010;53.640;10.578;2022-08-18T00:21:48;100546.66;;;28.42;48.05
59240;BME280;45010;53.640;10.578;2022-08-18T00:24:54;100539.38;;;28.37;48.25
59240;BME280;45010;53.640;10.578;2022-08-18T00:27:54;100538.03;;;28.40;48.25
59240;BME280;45010;53.640;10.578;2022-08-18T00:30:55;100535.94;;;28.42;48.32
59240;BME280;45010;53.640;10.578;2022-08-18T00:33:55;100544.22;;;28.40;48.02
59240;BME280;45010;53.640;10.578;2022-08-18T00:36:55;100541.00;;;28.38;48.14
59240;BME280;45010;53.640;10.578;2022-08-18T00:39:56;100541.28;;;28.42;47.98
59240;BME280;45010;53.640;10.578;2022-08-18T00:42:59;100527.84;;;28.37;48.01
59240;BME280;45010;53.640;10.578;2022-08-18T00:46:06;100509.28;;;28.25;47.88
59240;BME280;45010;53.640;10.578;2022-08-18T00:49:08;100533.50;;;28.40;47.58
59240;BME280;45010;53.640;10.578;2022-08-18T00:52:08;100520.06;;;28.35;47.78
59240;BME280;45010;53.640;10.578;2022-08-18T00:55:10;100529.47;;;28.38;47.47
59240;BME280;45010;53.640;10.578;2022-08-18T00:58:15;100531.59;;;28.36;47.34
59240;BME280;45010;53.640;10.578;2022-08-18T01:01:20;100506.00;;;28.17;47.44
59240;BME280;45010;53.640;10.578;2022-08-18T01:04:32;100521.94;;;28.29;47.48
59240;BME280;45010;53.640;10.578;2022-08-18T01:07:37;100518.41;;;28.24;47.59
59240;BME280;45010;53.640;10.578;2022-08-18T01:10:42;100505.75;;;28.19;47.29
59240;BME280;45010;53.640;10.578;2022-08-18T01:13:42;100513.03;;;28.24;47.09
59240;BME280;45010;53.640;10.578;2022-08-18T01:16:45;100497.19;;;28.17;47.17
59240;BME280;45010;53.640;10.578;2022-08-18T01:20:05;100489.09;;;28.12;47.16
59240;BME280;45010;53.640;10.578;2022-08-18T01:23:24;100467.59;;;28.01;46.99
59240;BME280;45010;53.640;10.578;2022-08-18T01:26:27;100497.69;;;28.14;46.58
59240;BME280;45010;53.640;10.578;2022-08-18T01:29:34;100488.53;;;28.04;46.70
59240;BME280;45010;53.640;10.578;2022-08-18T01:32:37;100489.06;;;28.06;46.82
59240;BME280;45010;53.640;10.578;2022-08-18T01:35:39;100498.19;;;28.05;46.70
59240;BME280;45010;53.640;10.578;2022-08-18T01:38:39;100492.25;;;28.03;46.61
59240;BME280;45010;53.640;10.578;2022-08-18T01:41:40;100491.72;;;28.01;46.45
59240;BME280;45010;53.640;10.578;2022-08-18T01:44:40;100493.88;;;27.99;46.39
59240;BME280;45010;53.640;10.578;2022-08-18T01:47:41;100478.25;;;27.91;46.42
59240;BME280;45010;53.640;10.578;2022-08-18T01:50:42;100485.81;;;27.94;46.02
59240;BME280;45010;53.640;10.578;2022-08-18T01:53:44;100483.63;;;27.91;46.14
59240;BME280;45010;53.640;10.578;2022-08-18T01:56:45;100488.97;;;27.91;46.08
59240;BME280;45010;53.640;10.578;2022-08-18T01:59:47;100483.91;;;27.89;46.40
59240;BME280;45010;53.640;10.578;2022-08-18T02:02:48;100489.53;;;27.88;46.38
59240;BME280;45010;53.640;10.578;2022-08-18T02:05:50;100484.41;;;27.86;46.21
59240;BME280;45010;53.640;10.578;2022-08-18T02:08:51;100483.88;;;27.84;46.34
59240;BME280;45010;53.640;10.578;2022-08-18T02:11:51;100460.47;;;27.69;46.23
59240;BME280;45010;53.640;10.578;2022-08-18T02:14:51;100467.72;;;27.74;46.03
59240;BME280;45010;53.640;10.578;2022-08-18T02:17:52;100488.38;;;27.78;46.06
59240;BME280;45010;53.640;10.578;2022-08-18T02:20:53;100486.72;;;27.72;46.09
59240;BME280;45010;53.640;10.578;2022-08-18T02:23:54;100493.19;;;27.76;46.67
59240;BME280;45010;53.640;10.578;2022-08-18T02:26:55;100487.31;;;27.74;46.43
59240;BME280;45010;53.640;10.578;2022-08-18T02:29:58;100474.94;;;27.68;46.54
59240;BME280;45010;53.640;10.578;2022-08-18T02:32:59;100483.53;;;27.70;46.36
59240;BME280;45010;53.640;10.578;2022-08-18T02:36:01;100491.81;;;27.69;46.44
59240;BME280;45010;53.640;10.578;2022-08-18T02:39:02;100481.34;;;27.62;46.54
59240;BME280;45010;53.640;10.578;2022-08-18T02:42:04;100485.09;;;27.66;46.96
59240;BME280;45010;53.640;10.578;2022-08-18T02:45:05;100476.22;;;27.60;46.76
59240;BME280;45010;53.640;10.578;2022-08-18T02:48:05;100482.66;;;27.59;46.75
59240;BME280;45010;53.640;10.578;2022-08-18T02:51:09;100486.69;;;27.62;46.82
59240;BME280;45010;53.640;10.578;2022-08-18T02:54:11;100476.47;;;27.59;46.83
59240;BME280;45010;53.640;10.578;2022-08-18T02:57:11;100474.00;;;27.57;46.84
59240;BME280;45010;53.640;10.578;2022-08-18T03:00:14;100471.59;;;27.56;46.95
59240;BME280;45010;53.640;10.578;2022-08-18T03:03:15;100462.75;;;27.55;46.83
59240;BME280;45010;53.640;10.578;2022-08-18T03:06:17;100461.13;;;27.49;46.75
59240;BME280;45010;53.640;10.578;2022-08-18T03:09:18;100462.97;;;27.48;47.13
59240;BME280;45010;53.640;10.578;2022-08-18T03:12:18;100465.94;;;27.52;47.24
59240;BME280;45010;53.640;10.578;2022-08-18T03:15:18;100462.44;;;27.46;46.75
59240;BME280;45010;53.640;10.578;2022-08-18T03:18:19;100467.25;;;27.49;46.93
59240;BME280;45010;53.640;10.578;2022-08-18T03:21:21;100462.16;;;27.43;47.04
59240;BME280;45010;53.640;10.578;2022-08-18T03:24:22;100480.13;;;27.47;47.35
59240;BME280;45010;53.640;10.578;2022-08-18T03:27:22;100466.16;;;27.40;47.23
59240;BME280;45010;53.640;10.578;2022-08-18T03:30:23;100475.28;;;27.44;47.43
59240;BME280;45010;53.640;10.578;2022-08-18T03:33:23;100477.97;;;27.44;47.02
59240;BME280;45010;53.640;10.578;2022-08-18T03:36:29;100474.72;;;27.42;47.36
59240;BME280;45010;53.640;10.578;2022-08-18T03:39:33;100484.88;;;27.40;47.32
59240;BME280;45010;53.640;10.578;2022-08-18T03:42:33;100487.03;;;27.38;47.25
59240;BME280;45010;53.640;10.578;2022-08-18T03:45:34;100489.13;;;27.36;47.41
59240;BME280;45010;53.640;10.578;2022-08-18T03:48:35;100483.78;;;27.36;47.54
59240;BME280;45010;53.640;10.578;2022-08-18T03:51:37;100484.84;;;27.35;47.37
59240;BME280;45010;53.640;10.578;2022-08-18T03:54:38;100489.66;;;27.33;47.19
59240;BME280;45010;53.640;10.578;2022-08-18T03:57:38;100491.75;;;27.31;47.41
59240;BME280;45010;53.640;10.578;2022-08-18T04:00:39;100490.94;;;27.25;47.41
59240;BME280;45010;53.640;10.578;2022-08-18T04:03:43;100491.19;;;27.23;47.88
59240;BME280;45010;53.640;10.578;2022-08-18T04:06:46;100501.88;;;27.23;47.87
59240;BME280;45010;53.640;10.578;2022-08-18T04:09:50;100474.53;;;27.16;47.84
59240;BME280;45010;53.640;10.578;2022-08-18T04:12:50;100507.53;;;27.27;47.32
59240;BME280;45010;53.640;10.578;2022-08-18T04:15:51;100490.06;;;27.19;47.65
59240;BME280;45010;53.640;10.578;2022-08-18T04:18:51;100498.13;;;27.24;47.83
59240;BME280;45010;53.640;10.578;2022-08-18T04:21:52;100479.28;;;27.09;47.61
59240;BME280;45010;53.640;10.578;2022-08-18T04:24:53;100499.47;;;27.22;47.33
59240;BME280;45010;53.640;10.578;2022-08-18T04:27:53;100490.06;;;27.19;47.67
59240;BME280;45010;53.640;10.578;2022-08-18T04:31:05;100460.50;;;27.04;47.77
59240;BME280;45010;53.640;10.578;2022-08-18T04:34:06;100486.34;;;27.20;47.37
59240;BME280;45010;53.640;10.578;2022-08-18T04:37:07;100459.97;;;27.07;47.69
59240;BME280;45010;53.640;10.578;2022-08-18T04:40:09;100467.50;;;27.10;47.71
59240;BME280;45010;53.640;10.578;2022-08-18T04:43:10;100481.50;;;27.17;47.70
59240;BME280;45010;53.640;10.578;2022-08-18T04:46:14;100483.63;;;27.15;47.73
59240;BME280;45010;53.640;10.578;2022-08-18T04:49:16;100479.28;;;27.09;48.16
59240;BME280;45010;53.640;10.578;2022-08-18T04:52:16;100477.69;;;27.08;47.85
59240;BME280;45010;53.640;10.578;2022-08-18T04:55:36;100488.41;;;27.13;47.97
59240;BME280;45010;53.640;10.578;2022-08-18T04:58:36;100483.31;;;27.11;47.72
59240;BME280;45010;53.640;10.578;2022-08-18T05:01:39;100469.00;;;26.95;47.96
59240;BME280;45010;53.640;10.578;2022-08-18T05:04:41;100489.94;;;27.04;48.40
59240;BME280;45010;53.640;10.578;2022-08-18T05:07:43;100485.44;;;27.09;48.16
59240;BME280;45010;53.640;10.578;2022-08-18T05:10:44;100471.09;;;26.93;48.14
59240;BME280;45010;53.640;10.578;2022-08-18T05:13:48;100488.06;;;27.04;48.09
59240;BME280;45010;53.640;10.578;2022-08-18T05:16:49;100487.28;;;27.04;48.01
59240;BME280;45010;53.640;10.578;2022-08-18T05:19:50;100494.53;;;27.08;48.15
59240;BME280;45010;53.640;10.578;2022-08-18T05:22:51;100506.06;;;27.09;48.32
59240;BME280;45010;53.640;10.578;2022-08-18T05:25:58;100488.34;;;27.03;48.35
59240;BME280;45010;53.640;10.578;2022-08-18T05:28:59;100494.53;;;27.08;48.33
59240;BME280;45010;53.640;10.578;2022-08-18T05:32:00;100498.03;;;27.09;48.44
59240;BME280;45010;53.640;10.578;2022-08-18T05:35:11;100493.75;;;27.08;48.64
59240;BME280;45010;53.640;10.578;2022-08-18T05:41:53;100494.53;;;27.08;48.77
59240;BME280;45010;53.640;10.578;2022-08-18T05:44:55;100502.56;;;27.08;48.51
59240;BME280;45010;53.640;10.578;2022-08-18T05:47:58;100477.34;;;26.99;48.64
59240;BME280;45010;53.640;10.578;2022-08-18T05:51:06;100490.00;;;27.09;48.99
59240;BME280;45010;53.640;10.578;2022-08-18T05:54:10;100491.59;;;27.10;48.82
59240;BME280;45010;53.640;10.578;2022-08-18T05:57:31;100486.44;;;27.03;49.07
59240;BME280;45010;53.640;10.578;2022-08-18T06:00:34;100485.44;;;27.09;48.97
59240;BME280;45010;53.640;10.578;2022-08-18T06:04:00;100480.03;;;27.04;48.94
59240;BME280;45010;53.640;10.578;2022-08-18T06:07:04;100481.09;;;27.03;48.70
59240;BME280;45010;53.640;10.578;2022-08-18T06:10:07;100491.59;;;27.10;49.19
59240;BME280;45010;53.640;10.578;2022-08-18T06:13:09;100471.94;;;26.94;48.83
59240;BME280;45010;53.640;10.578;2022-08-18T06:16:58;100487.28;;;27.04;49.30
59240;BME280;45010;53.640;10.578;2022-08-18T06:20:27;100499.09;;;27.08;48.98
59240;BME280;45010;53.640;10.578;2022-08-18T06:23:34;100500.69;;;27.09;49.39
59240;BME280;45010;53.640;10.578;2022-08-18T06:26:53;100510.59;;;27.08;49.35
59240;BME280;45010;53.640;10.578;2022-08-18T06:30:02;100501.19;;;27.06;49.06
59240;BME280;45010;53.640;10.578;2022-08-18T06:33:32;100499.59;;;27.05;49.64
59240;BME280;45010;53.640;10.578;2022-08-18T06:37:06;100511.91;;;27.06;49.70
59240;BME280;45010;53.640;10.578;2022-08-18T06:40:10;100518.31;;;27.05;49.63
59240;BME280;45010;53.640;10.578;2022-08-18T06:43:12;100488.16;;;26.87;49.96
59240;BME280;45010;53.640;10.578;2022-08-18T06:46:19;100488.66;;;26.84;50.15
59240;BME280;45010;53.640;10.578;2022-08-18T06:49:47;100513.22;;;27.03;50.16
59240;BME280;45010;53.640;10.578;2022-08-18T06:52:58;100519.38;;;27.04;50.04
59240;BME280;45010;53.640;10.578;2022-08-18T06:56:19;100517.78;;;27.03;50.10
59240;BME280;45010;53.640;10.578;2022-08-18T07:02:36;100535.19;;;27.05;50.32
59240;BME280;45010;53.640;10.578;2022-08-18T07:09:19;100524.75;;;27.04;51.01
59240;BME280;45010;53.640;10.578;2022-08-18T07:12:24;100521.50;;;27.02;50.97
59240;BME280;45010;53.640;10.578;2022-08-18T07:15:25;100529.03;;;27.05;50.80
59240;BME280;45010;53.640;10.578;2022-08-18T07:18:27;100519.34;;;26.98;51.19
59240;BME280;45010;53.640;10.578;2022-08-18T07:21:32;100525.75;;;26.97;51.20
59240;BME280;45010;53.640;10.578;2022-08-18T07:24:38;100532.16;;;26.96;51.19
59240;BME280;45010;53.640;10.578;2022-08-18T07:27:40;100545.09;;;27.05;51.08
59240;BME280;45010;53.640;10.578;2022-08-18T07:30:41;100544.03;;;27.06;50.86
59240;BME280;45010;53.640;10.578;2022-08-18T07:37:16;100545.03;;;26.99;51.58
59240;BME280;45010;53.640;10.578;2022-08-18T07:40:32;100538.06;;;26.98;51.23
59240;BME280;45010;53.640;10.578;2022-08-18T07:44:02;100529.50;;;26.96;52.02
59240;BME280;45010;53.640;10.578;2022-08-18T07:47:15;100541.28;;;27.01;51.80
59240;BME280;45010;53.640;10.578;2022-08-18T07:50:16;100538.38;;;27.02;52.22
59240;BME280;45010;53.640;10.578;2022-08-18T07:53:29;100547.75;;;27.05;52.32
59240;BME280;45010;53.640;10.578;2022-08-18T07:56:51;100541.03;;;27.02;52.05
59240;BME280;45010;53.640;10.578;2022-08-18T08:00:22;100554.22;;;27.09;52.07
59240;BME280;45010;53.640;10.578;2022-08-18T08:03:36;100559.59;;;27.09;52.34
59240;BME280;45010;53.640;10.578;2022-08-18T08:07:11;100557.97;;;27.08;52.12
59240;BME280;45010;53.640;10.578;2022-08-18T08:17:06;100570.91;;;27.16;52.38
59240;BME280;45010;53.640;10.578;2022-08-18T08:20:18;100583.81;;;27.24;52.58
59240;BME280;45010;53.640;10.578;2022-08-18T08:23:28;100587.06;;;27.26;52.03
59240;BME280;45010;53.640;10.578;2022-08-18T08:30:11;100589.22;;;27.30;52.36
59240;BME280;45010;53.640;10.578;2022-08-18T08:33:23;100594.03;;;27.28;52.16
59240;BME280;45010;53.640;10.578;2022-08-18T08:36:32;100593.53;;;27.31;52.33
59240;BME280;45010;53.640;10.578;2022-08-18T08:39:49;100582.81;;;27.31;52.21
59240;BME280;45010;53.640;10.578;2022-08-18T08:43:05;100588.16;;;27.31;51.76
59240;BME280;45010;53.640;10.578;2022-08-18T08:46:23;100604.28;;;27.36;52.03
59240;BME280;45010;53.640;10.578;2022-08-18T08:49:50;100601.59;;;27.36;52.27
59240;BME280;45010;53.640;10.578;2022-08-18T08:53:03;100601.59;;;27.36;52.00
59240;BME280;45010;53.640;10.578;2022-08-18T08:56:11;100586.31;;;27.31;51.60
59240;BME280;45010;53.640;10.578;2022-08-18T08:59:17;100594.94;;;27.38;51.78
59240;BME280;45010;53.640;10.578;2022-08-18T09:05:37;100605.94;;;27.42;52.09
59240;BME280;45010;53.640;10.578;2022-08-18T09:12:39;100612.91;;;27.43;51.99
59240;BME280;45010;53.640;10.578;2022-08-18T09:16:06;100609.19;;;27.44;51.85
59240;BME280;45010;53.640;10.578;2022-08-18T09:19:28;100606.25;;;27.46;51.84
59240;BME280;45010;53.640;10.578;2022-08-18T09:22:47;100607.88;;;27.47;51.43
59240;BME280;45010;53.640;10.578;2022-08-18T09:25:53;100605.94;;;27.42;51.58
59240;BME280;45010;53.640;10.578;2022-08-18T09:28:58;100607.56;;;27.43;51.10
59240;BME280;45010;53.640;10.578;2022-08-18T09:38:29;100590.91;;;27.36;51.39
59240;BME280;45010;53.640;10.578;2022-08-18T09:41:57;100605.75;;;27.49;51.30
59240;BME280;45010;53.640;10.578;2022-08-18T09:45:07;100598.97;;;27.41;51.16
59240;BME280;45010;53.640;10.578;2022-08-18T09:54:19;100612.41;;;27.46;50.96
59240;BME280;45010;53.640;10.578;2022-08-18T09:57:23;100618.59;;;27.47;51.00
59240;BME280;45010;53.640;10.578;2022-08-18T10:00:29;100615.66;;;27.48;50.60
59240;BME280;45010;53.640;10.578;2022-08-18T10:03:30;100615.69;;;27.53;50.53
59240;BME280;45010;53.640;10.578;2022-08-18T10:06:30;100610.34;;;27.53;50.96
59240;BME280;45010;53.640;10.578;2022-08-18T10:12:55;100613.56;;;27.56;50.72
59240;BME280;45010;53.640;10.578;2022-08-18T10:16:19;100611.72;;;27.56;50.23
59240;BME280;45010;53.640;10.578;2022-08-18T10:19:50;100608.81;;;27.58;50.16
59240;BME280;45010;53.640;10.578;2022-08-18T10:22:54;100616.84;;;27.58;50.67
59240;BME280;45010;53.640;10.578;2022-08-18T10:25:55;100628.34;;;27.58;50.22
59240;BME280;45010;53.640;10.578;2022-08-18T10:29:04;100622.66;;;27.55;50.40
59240;BME280;45010;53.640;10.578;2022-08-18T10:32:16;100622.75;;;27.60;50.41
59240;BME280;45010;53.640;10.578;2022-08-18T10:35:55;100626.00;;;27.62;50.08
59240;BME280;45010;53.640;10.578;2022-08-18T10:38:55;100634.03;;;27.62;50.17
59240;BME280;45010;53.640;10.578;2022-08-18T10:42:04;100634.59;;;27.64;50.22
59240;BME280;45010;53.640;10.578;2022-08-18T10:48:25;100624.88;;;27.58;50.22
59240;BME280;45010;53.640;10.578;2022-08-18T10:55:12;100632.97;;;27.63;50.41
59240;BME280;45010;53.640;10.578;2022-08-18T11:02:04;100621.59;;;27.56;50.74
59240;BME280;45010;53.640;10.578;2022-08-18T11:05:11;100626.00;;;27.62;50.82
59240;BME280;45010;53.640;10.578;2022-08-18T11:08:17;100614.75;;;27.65;50.66
59240;BME280;45010;53.640;10.578;2022-08-18T11:11:22;100621.72;;;27.66;50.33
59240;BME280;45010;53.640;10.578;2022-08-18T11:15:00;100632.00;;;27.74;50.38
59240;BME280;45010;53.640;10.578;2022-08-18T11:21:31;100613.25;;;27.74;50.70
59240;BME280;45010;53.640;10.578;2022-08-18T11:24:32;100621.34;;;27.85;50.29
59240;BME280;45010;53.640;10.578;2022-08-18T11:27:34;100621.91;;;27.87;50.00
59240;BME280;45010;53.640;10.578;2022-08-18T11:30:36;100611.19;;;27.87;50.01
59240;BME280;45010;53.640;10.578;2022-08-18T11:33:40;100602.63;;;27.90;50.40
59240;BME280;45010;53.640;10.578;2022-08-18T11:36:41;100609.13;;;27.99;50.58
59240;BME280;45010;53.640;10.578;2022-08-18T11:39:46;100603.78;;;27.99;50.66
59240;BME280;45010;53.640;10.578;2022-08-18T11:42:58;100574.75;;;27.91;50.42
59240;BME280;45010;53.640;10.578;2022-08-18T11:46:11;100585.56;;;28.01;50.55
59240;BME280;45010;53.640;10.578;2022-08-18T11:49:18;100597.66;;;28.09;50.23
59240;BME280;45010;53.640;10.578;2022-08-18T11:52:26;100604.44;;;28.17;50.26
59240;BME280;45010;53.640;10.578;2022-08-18T11:55:31;100607.66;;;28.19;50.59
59240;BME280;45010;53.640;10.578;2022-08-18T11:58:51;100607.34;;;28.15;50.86
59240;BME280;45010;53.640;10.578;2022-08-18T12:01:53;100597.44;;;28.16;50.94
59240;BME280;45010;53.640;10.578;2022-08-18T12:04:56;100597.25;;;28.23;50.50
59240;BME280;45010;53.640;10.578;2022-08-18T12:08:01;100591.63;;;28.24;50.79
59240;BME280;45010;53.640;10.578;2022-08-18T12:11:23;100587.34;;;28.23;50.72
59240;BME280;45010;53.640;10.578;2022-08-18T12:14:27;100582.50;;;28.25;50.71
59240;BME280;45010;53.640;10.578;2022-08-18T12:17:29;100592.72;;;28.33;50.71
59240;BME280;45010;53.640;10.578;2022-08-18T12:20:30;100583.63;;;28.35;50.38
59240;BME280;45010;53.640;10.578;2022-08-18T12:23:32;100588.72;;;28.36;50.51
59240;BME280;45010;53.640;10.578;2022-08-18T12:26:33;100586.03;;;28.36;50.63
59240;BME280;45010;53.640;10.578;2022-08-18T12:29:33;100584.72;;;28.39;50.41
59240;BME280;45010;53.640;10.578;2022-08-18T12:32:34;100564.31;;;28.32;50.55
59240;BME280;45010;53.640;10.578;2022-08-18T12:35:35;100575.91;;;28.43;50.28
59240;BME280;45010;53.640;10.578;2022-08-18T12:38:35;100589.03;;;28.45;50.40
59240;BME280;45010;53.640;10.578;2022-08-18T12:41:35;100565.41;;;28.37;49.81
59240;BME280;45010;53.640;10.578;2022-08-18T12:44:36;100569.72;;;28.43;49.93
59240;BME280;45010;53.640;10.578;2022-08-18T12:47:38;100566.50;;;28.46;50.13
59240;BME280;45010;53.640;10.578;2022-08-18T12:50:40;100561.13;;;28.46;49.71
59240;BME280;45010;53.640;10.578;2022-08-18T12:53:41;100578.88;;;28.52;49.77
59240;BME280;45010;53.640;10.578;2022-08-18T12:56:41;100577.81;;;28.53;49.75
59240;BME280;45010;53.640;10.578;2022-08-18T12:59:41;100582.13;;;28.54;49.81
59240;BME280;45010;53.640;10.578;2022-08-18T13:02:42;100583.72;;;28.55;49.47
59240;BME280;45010;53.640;10.578;2022-08-18T13:05:42;100574.59;;;28.56;49.41
59240;BME280;45010;53.640;10.578;2022-08-18T13:08:43;100563.88;;;28.56;49.21
59240;BME280;45010;53.640;10.578;2022-08-18T13:11:43;100557.41;;;28.52;49.50
59240;BME280;45010;53.640;10.578;2022-08-18T13:14:44;100570.84;;;28.57;49.65
59240;BME280;45010;53.640;10.578;2022-08-18T13:17:44;100567.91;;;28.59;49.38
59240;BME280;45010;53.640;10.578;2022-08-18T13:20:45;100568.72;;;28.59;49.06
59240;BME280;45010;53.640;10.578;2022-08-18T13:23:45;100577.31;;;28.62;49.25
59240;BME280;45010;53.640;10.578;2022-08-18T13:26:46;100577.03;;;28.58;49.20
59240;BME280;45010;53.640;10.578;2022-08-18T13:29:47;100565.16;;;28.49;48.95
59240;BME280;45010;53.640;10.578;2022-08-18T13:32:47;100582.16;;;28.65;48.82
59240;BME280;45010;53.640;10.578;2022-08-18T13:35:51;100560.69;;;28.59;49.01
59240;BME280;45010;53.640;10.578;2022-08-18T13:38:52;100575.72;;;28.66;49.11
59240;BME280;45010;53.640;10.578;2022-08-18T13:41:53;100555.84;;;28.62;48.91
59240;BME280;45010;53.640;10.578;2022-08-18T13:44:58;100548.59;;;28.67;48.44
59240;BME280;45010;53.640;10.578;2022-08-18T13:47:59;100551.56;;;28.66;48.85
59240;BME280;45010;53.640;10.578;2022-08-18T13:51:00;100540.56;;;28.62;48.38
59240;BME280;45010;53.640;10.578;2022-08-18T13:54:02;100551.56;;;28.66;49.00
59240;BME280;45010;53.640;10.578;2022-08-18T13:57:04;100537.59;;;28.64;48.96
59240;BME280;45010;53.640;10.578;2022-08-18T14:00:07;100545.16;;;28.72;49.32
59240;BME280;45010;53.640;10.578;2022-08-18T14:03:11;100524.19;;;28.58;49.04
59240;BME280;45010;53.640;10.578;2022-08-18T14:06:11;100546.22;;;28.76;48.98
59240;BME280;45010;53.640;10.578;2022-08-18T14:09:11;100545.69;;;28.79;48.97
59240;BME280;45010;53.640;10.578;2022-08-18T14:12:17;100530.94;;;28.77;49.04
59240;BME280;45010;53.640;10.578;2022-08-18T14:15:18;100538.19;;;28.81;49.48
59240;BME280;45010;53.640;10.578;2022-08-18T14:18:20;100532.03;;;28.81;49.49
59240;BME280;45010;53.640;10.578;2022-08-18T14:21:21;100546.28;;;28.86;49.46
59240;BME280;45010;53.640;10.578;2022-08-18T14:24:41;100539.56;;;28.89;49.04
59240;BME280;45010;53.640;10.578;2022-08-18T14:28:00;100530.44;;;28.90;48.80
59240;BME280;45010;53.640;10.578;2022-08-18T14:31:01;100524.00;;;28.91;49.16
59240;BME280;45010;53.640;10.578;2022-08-18T14:34:02;100523.75;;;28.93;49.18
59240;BME280;45010;53.640;10.578;2022-08-18T14:37:03;100498.72;;;28.77;49.36
59240;BME280;45010;53.640;10.578;2022-08-18T14:40:04;100525.34;;;28.94;49.37
59240;BME280;45010;53.640;10.578;2022-08-18T14:43:05;100522.13;;;28.92;49.41
59240;BME280;45010;53.640;10.578;2022-08-18T14:46:06;100544.16;;;28.99;49.53
59240;BME280;45010;53.640;10.578;2022-08-18T14:49:06;100533.97;;;28.96;49.18
59240;BME280;45010;53.640;10.578;2022-08-18T14:52:08;100530.72;;;28.94;49.59
59240;BME280;45010;53.640;10.578;2022-08-18T14:55:10;100548.47;;;29.05;49.27
59240;BME280;45010;53.640;10.578;2022-08-18T14:58:10;100550.06;;;29.06;49.30
59240;BME280;45010;53.640;10.578;2022-08-18T15:01:11;100553.56;;;29.07;49.57
59240;BME280;45010;53.640;10.578;2022-08-18T15:04:12;100490.13;;;28.64;49.51
59240;BME280;45010;53.640;10.578;2022-08-18T15:07:14;100548.72;;;29.09;49.47
59240;BME280;45010;53.640;10.578;2022-08-18T15:10:15;100538.53;;;29.06;49.47
59240;BME280;45010;53.640;10.578;2022-08-18T15:13:16;100522.16;;;28.97;49.30
59240;BME280;45010;53.640;10.578;2022-08-18T15:16:16;100536.13;;;29.04;49.25
59240;BME280;45010;53.640;10.578;2022-08-18T15:19:16;100533.97;;;29.06;49.18
59240;BME280;45010;53.640;10.578;2022-08-18T15:22:17;100541.22;;;29.11;49.30
59240;BME280;45010;53.640;10.578;2022-08-18T15:25:36;100553.84;;;29.16;49.47
59240;BME280;45010;53.640;10.578;2022-08-18T15:28:43;100560.84;;;29.17;49.56
59240;BME280;45010;53.640;10.578;2022-08-18T15:31:44;100553.84;;;29.16;49.46
59240;BME280;45010;53.640;10.578;2022-08-18T15:34:46;100559.22;;;29.16;49.65
59240;BME280;45010;53.640;10.578;2022-08-18T15:37:47;100545.00;;;29.10;49.60
59240;BME280;45010;53.640;10.578;2022-08-18T15:40:53;100558.16;;;29.17;49.57
59240;BME280;45010;53.640;10.578;2022-08-18T15:43:54;100550.09;;;29.17;49.73
59240;BME280;45010;53.640;10.578;2022-08-18T15:46:55;100546.31;;;29.18;49.71
59240;BME280;45010;53.640;10.578;2022-08-18T15:49:56;100544.19;;;29.20;49.84
59240;BME280;45010;53.640;10.578;2022-08-18T15:53:01;100549.28;;;29.21;49.67
59240;BME280;45010;53.640;10.578;2022-08-18T15:56:05;100543.66;;;29.23;49.71
59240;BME280;45010;53.640;10.578;2022-08-18T15:59:11;100548.50;;;29.26;49.59
59240;BME280;45010;53.640;10.578;2022-08-18T16:02:11;100544.75;;;29.27;49.70
59240;BME280;45010;53.640;10.578;2022-08-18T16:05:12;100535.06;;;29.21;49.88
59240;BME280;45010;53.640;10.578;2022-08-18T16:08:12;100551.72;;;29.28;49.98
59240;BME280;45010;53.640;10.578;2022-08-18T16:11:13;100558.44;;;29.31;49.70
59240;BME280;45010;53.640;10.578;2022-08-18T16:14:14;100552.81;;;29.32;49.95
59240;BME280;45010;53.640;10.578;2022-08-18T16:17:14;100557.63;;;29.35;49.79
59240;BME280;45010;53.640;10.578;2022-08-18T16:20:15;100550.13;;;29.32;49.93
59240;BME280;45010;53.640;10.578;2022-08-18T16:23:17;100552.81;;;29.37;49.75
59240;BME280;45010;53.640;10.578;2022-08-18T16:26:20;100560.31;;;29.40;49.81
59240;BME280;45010;53.640;10.578;2022-08-18T16:29:20;100561.91;;;29.42;49.56
59240;BME280;45010;53.640;10.578;2022-08-18T16:32:20;100560.84;;;29.43;49.70
59240;BME280;45010;53.640;10.578;2022-08-18T16:35:21;100552.78;;;29.43;49.74
59240;BME280;45010;53.640;10.578;2022-08-18T16:38:21;100559.25;;;29.47;49.54
59240;BME280;45010;53.640;10.578;2022-08-18T16:41:23;100550.13;;;29.48;49.45
59240;BME280;45010;53.640;10.578;2022-08-18T16:44:23;100538.56;;;29.37;49.33
59240;BME280;45010;53.640;10.578;2022-08-18T16:47:24;100555.22;;;29.44;49.38
59240;BME280;45010;53.640;10.578;2022-08-18T16:50:24;100548.75;;;29.45;49.15
59240;BME280;45010;53.640;10.578;2022-08-18T16:53:25;100542.84;;;29.43;49.17
59240;BME280;45010;53.640;10.578;2022-08-18T16:56:28;100553.88;;;29.47;49.20